Time;durP1;ratioP1;P1;durP2;ratioP2;P2;SDS_P1;SDS_P2;PMS_P1;PMS_P2;Temp;Humidity;BMP_temperature;BMP_pressure;BME280_temperature;BME280_humidity;BME280_pressure;Samples;Min_cycle;Max_cycle;Signal;HPM_P1;HPM_P2
2022/02/15 00:01:29;;;;;;;88.92;48.10;;;;;;;1.40;100.00;101564.54;1736878;81;20964;-65
2022/02/15 00:03:57;;;;;;;81.87;46.10;;;;;;;1.74;100.00;101560.76;1737258;82;47457;-64
2022/02/15 00:06:24;;;;;;;79.87;42.83;;;;;;;1.54;100.00;101561.97;1745113;81;20903;-63
2022/02/15 00:08:50;;;;;;;82.50;43.38;;;;;;;1.33;100.00;101559.42;1745199;82;21865;-70
2022/02/15 00:11:18;;;;;;;90.55;48.78;;;;;;;1.51;100.00;101557.48;1741813;81;22356;-63
2022/02/15 00:13:44;;;;;;;112.47;59.90;;;;;;;1.43;100.00;101556.66;1742521;82;20951;-64
2022/02/15 00:16:11;;;;;;;128.72;68.05;;;;;;;1.24;100.00;101552.25;1741138;81;21578;-74
2022/02/15 00:18:38;;;;;;;94.35;52.73;;;;;;;1.06;100.00;101551.14;1745545;82;21057;-67
2022/02/15 00:21:05;;;;;;;98.50;53.68;;;;;;;1.11;100.00;101549.13;1744693;81;21220;-66
2022/02/15 00:23:31;;;;;;;82.17;44.53;;;;;;;1.10;100.00;101543.62;1740013;81;21559;-64
2022/02/15 00:25:58;;;;;;;89.77;47.45;;;;;;;1.20;100.00;101540.87;1745347;82;20991;-64
2022/02/15 00:28:24;;;;;;;105.00;53.33;;;;;;;1.26;100.00;101549.14;1745329;81;20970;-67
2022/02/15 00:30:51;;;;;;;88.52;51.42;;;;;;;1.25;100.00;101543.61;1744891;82;21092;-66
2022/02/15 00:33:18;;;;;;;95.00;53.05;;;;;;;1.34;100.00;101534.09;1741401;81;22235;-64
2022/02/15 00:35:45;;;;;;;91.80;52.62;;;;;;;1.41;100.00;101531.06;1725578;82;21508;-64
2022/02/15 00:38:12;;;;;;;100.78;53.63;;;;;;;1.27;100.00;101528.95;1735700;81;21042;-67
2022/02/15 00:40:39;;;;;;;108.00;55.80;;;;;;;1.18;100.00;101531.63;1725210;81;21040;-73
2022/02/15 00:43:05;;;;;;;99.90;54.33;;;;;;;1.03;100.00;101537.20;1726249;82;21113;-63
2022/02/15 00:45:36;;;;;;;107.55;57.73;;;;;;;1.36;100.00;101530.96;1723857;82;21057;-64
2022/02/15 00:48:04;;;;;;;99.72;54.85;;;;;;;1.28;100.00;101528.85;1744928;80;21034;-72
2022/02/15 00:50:31;;;;;;;113.37;59.03;;;;;;;1.34;100.00;101531.06;1742720;82;21038;-66
2022/02/15 00:52:58;;;;;;;116.37;59.38;;;;;;;1.41;100.00;101536.67;1741026;81;20999;-69
2022/02/15 00:55:25;;;;;;;127.78;68.52;;;;;;;1.39;100.00;101533.35;1745576;82;21663;-66
2022/02/15 00:57:52;;;;;;;135.12;73.15;;;;;;;1.32;100.00;101536.73;1726501;81;21778;-65
2022/02/15 01:00:19;;;;;;;127.42;66.33;;;;;;;1.59;100.00;101530.85;1733150;82;20970;-64
2022/02/15 01:02:46;;;;;;;121.82;63.10;;;;;;;1.56;100.00;101535.73;1722237;82;21021;-64
2022/02/15 01:05:12;;;;;;;129.38;66.72;;;;;;;1.51;100.00;101539.49;1725825;82;22187;-64
2022/02/15 01:07:39;;;;;;;137.35;71.82;;;;;;;1.33;100.00;101535.02;1719277;82;21088;-65
2022/02/15 01:10:06;;;;;;;148.43;74.72;;;;;;;1.53;100.00;101541.52;1734530;81;21158;-74
2022/02/15 01:12:33;;;;;;;141.05;74.50;;;;;;;1.44;100.00;101539.06;1719003;82;20974;-64
2022/02/15 01:15:00;;;;;;;154.20;82.37;;;;;;;1.50;100.00;101548.95;1719625;82;21481;-73
2022/02/15 01:17:27;;;;;;;161.43;84.28;;;;;;;1.41;100.00;101537.48;1731469;82;21558;-65
2022/02/15 01:19:53;;;;;;;148.57;78.00;;;;;;;1.45;100.00;101543.27;1724750;82;21092;-67
2022/02/15 01:22:20;;;;;;;151.60;80.70;;;;;;;1.46;100.00;101543.62;1724890;82;21844;-64
2022/02/15 01:24:47;;;;;;;151.87;75.35;;;;;;;1.46;100.00;101543.62;1729875;82;21650;-66
2022/02/15 01:27:13;;;;;;;142.07;78.52;;;;;;;1.51;100.00;101547.20;1723117;81;21070;-75
2022/02/15 01:29:40;;;;;;;149.32;80.10;;;;;;;1.57;100.00;101545.09;1745343;81;20958;-64
2022/02/15 01:32:07;;;;;;;137.40;71.12;;;;;;;1.58;100.00;101551.87;1742865;82;20994;-68
2022/02/15 01:34:34;;;;;;;137.32;71.80;;;;;;;1.60;100.00;101549.23;1745526;82;21341;-63
2022/02/15 01:37:02;;;;;;;137.70;72.53;;;;;;;1.55;100.00;101546.91;1744994;82;21027;-64
2022/02/15 01:39:29;;;;;;;137.37;72.32;;;;;;;1.66;100.00;101547.55;1745027;82;21497;-64
2022/02/15 01:41:56;;;;;;;136.05;70.32;;;;;;;1.66;100.00;101550.95;1717923;82;21057;-66
2022/02/15 01:44:24;;;;;;;120.25;65.60;;;;;;;1.74;100.00;101554.80;1742480;82;20934;-73
2022/02/15 01:46:51;;;;;;;121.07;67.72;;;;;;;1.80;100.00;101555.72;1745714;82;21377;-66
2022/02/15 01:49:19;;;;;;;129.72;67.90;;;;;;;1.80;100.00;101553.14;1745393;82;20981;-65
2022/02/15 01:51:46;;;;;;;120.77;63.33;;;;;;;1.80;100.00;101575.00;1739132;81;20997;-68
2022/02/15 01:54:13;;;;;;;111.40;55.58;;;;;;;1.94;100.00;101557.80;1745216;81;21449;-65
2022/02/15 01:56:40;;;;;;;103.50;54.35;;;;;;;1.94;100.00;101557.80;1745339;82;21160;-69
2022/02/15 01:59:07;;;;;;;89.30;49.55;;;;;;;1.62;100.00;101563.62;1742502;81;22309;-64
2022/02/15 02:01:36;;;;;;;75.45;43.30;;;;;;;1.84;100.00;101565.71;1744082;81;20974;-64
2022/02/15 02:05:47;;;;;;;79.72;43.05;;;;;;;1.54;100.00;101565.01;1743270;82;21034;-64
2022/02/15 02:06:38;;;;;;;73.80;41.35;;;;;;;1.36;100.00;101570.78;1737093;82;21121;-63
2022/02/15 02:09:05;;;;;;;84.37;44.08;;;;;;;1.39;100.00;101573.17;1739868;82;21053;-64
2022/02/15 02:11:33;;;;;;;90.42;47.25;;;;;;;1.40;100.00;101573.09;1739972;82;21524;-65
2022/02/15 02:14:03;;;;;;;81.47;47.10;;;;;;;1.60;100.00;101580.89;1738896;81;20994;-64
2022/02/15 02:16:32;;;;;;;77.30;42.15;;;;;;;1.19;100.00;101585.91;1729408;81;20946;-67
2022/02/15 02:19:07;;;;;;;70.55;39.03;;;;;;;1.37;100.00;101589.16;1739209;81;21433;-72
2022/02/15 02:21:37;;;;;;;70.52;35.80;;;;;;;0.89;100.00;101587.23;1740360;82;22512;-64
2022/02/15 02:24:05;;;;;;;63.15;37.95;;;;;;;0.98;100.00;101576.41;1739613;81;21125;-72
2022/02/15 02:26:32;;;;;;;70.47;35.55;;;;;;;1.09;100.00;101583.04;1734822;82;21547;-65
2022/02/15 02:29:00;;;;;;;70.95;37.38;;;;;;;1.08;100.00;101583.97;1736787;82;21008;-65
2022/02/15 02:31:28;;;;;;;62.00;34.75;;;;;;;1.19;100.00;101570.05;1733053;81;21001;-64
2022/02/15 02:34:00;;;;;;;51.48;29.48;;;;;;;1.65;100.00;101571.15;1739210;81;21575;-66
2022/02/15 02:36:27;;;;;;;54.80;31.27;;;;;;;1.16;100.00;101574.07;1739927;81;21151;-65
2022/02/15 02:38:54;;;;;;;55.05;31.37;;;;;;;1.14;100.00;101577.20;1740279;82;22026;-67
2022/02/15 02:41:21;;;;;;;59.00;32.85;;;;;;;1.26;100.00;101567.12;1737164;82;21054;-65
2022/02/15 02:43:47;;;;;;;58.68;33.25;;;;;;;1.29;100.00;101573.34;1740355;82;21001;-64
2022/02/15 02:46:14;;;;;;;53.05;30.25;;;;;;;1.08;100.00;101584.42;1739555;82;21032;-71
2022/02/15 02:48:43;;;;;;;54.08;30.77;;;;;;;1.05;100.00;101581.56;1739884;82;21512;-65
2022/02/15 02:51:10;;;;;;;59.53;32.50;;;;;;;0.85;100.00;101580.62;1739854;82;21531;-69
2022/02/15 02:53:38;;;;;;;60.80;34.13;;;;;;;0.96;100.00;101576.98;1740157;81;20995;-64
2022/02/15 02:56:05;;;;;;;59.13;33.98;;;;;;;0.96;100.00;101576.98;1739826;82;21544;-72
2022/02/15 02:58:34;;;;;;;60.73;33.15;;;;;;;0.83;100.00;101579.86;1726513;80;21072;-65
2022/02/15 03:01:00;;;;;;;64.70;35.13;;;;;;;0.78;100.00;101584.44;1710030;82;21147;-63
2022/02/15 03:03:28;;;;;;;62.83;34.98;;;;;;;0.82;100.00;101580.78;1718922;82;21685;-70
2022/02/15 03:05:57;;;;;;;63.33;33.23;;;;;;;0.69;100.00;101580.20;1734741;81;21147;-64
2022/02/15 03:08:25;;;;;;;56.48;30.25;;;;;;;0.69;100.00;101580.20;1728129;82;20967;-64
2022/02/15 03:10:52;;;;;;;51.30;29.40;;;;;;;0.74;100.00;101576.09;1722880;82;22374;-64
2022/02/15 03:13:23;;;;;;;54.18;30.77;;;;;;;0.68;100.00;101576.00;1731757;81;21129;-64
2022/02/15 03:15:50;;;;;;;73.22;43.35;;;;;;;0.59;100.00;101575.21;1732525;82;20989;-64
2022/02/15 03:18:17;;;;;;;75.05;45.60;;;;;;;0.49;100.00;101577.91;1721561;82;21149;-64
2022/02/15 03:20:44;;;;;;;83.25;46.40;;;;;;;0.40;100.00;101573.30;1718440;82;21022;-66
2022/02/15 03:23:10;;;;;;;75.50;42.70;;;;;;;0.37;100.00;101564.48;1719388;82;21563;-65
2022/02/15 03:25:38;;;;;;;64.97;36.33;;;;;;;0.37;100.00;101564.48;1722022;82;21125;-73
2022/02/15 03:28:06;;;;;;;72.45;39.90;;;;;;;0.33;100.00;101566.40;1721390;82;20916;-64
2022/02/15 03:30:33;;;;;;;68.33;35.90;;;;;;;0.39;100.00;101575.51;1737206;82;20974;-66
2022/02/15 03:33:01;;;;;;;67.35;37.15;;;;;;;0.27;100.00;101573.63;1739580;82;21021;-67
2022/02/15 03:35:28;;;;;;;63.55;35.30;;;;;;;0.38;100.00;101576.39;1737677;82;20991;-67
2022/02/15 03:37:57;;;;;;;64.37;33.75;;;;;;;0.38;100.00;101577.25;1738725;81;21183;-65
2022/02/15 03:43:04;;;;;;;49.63;28.75;;;;;;;0.44;100.00;101578.63;1740179;82;21068;-65
2022/02/15 03:43:05;;;;;;;50.40;29.30;;;;;;;0.65;100.00;101582.58;1737889;82;20994;-66
2022/02/15 03:45:32;;;;;;;46.23;26.10;;;;;;;0.53;100.00;101581.13;1737222;82;21061;-66
2022/02/15 03:48:00;;;;;;;47.45;27.22;;;;;;;0.39;100.00;101578.07;1738388;81;21073;-66
2022/02/15 03:50:27;;;;;;;49.08;25.40;;;;;;;0.42;100.00;101575.34;1740410;82;21362;-64
2022/02/15 03:52:53;;;;;;;44.90;24.57;;;;;;;0.39;100.00;101584.02;1740349;82;20974;-66
2022/02/15 03:55:21;;;;;;;41.40;23.22;;;;;;;0.23;100.00;101584.05;1737842;82;21614;-64
2022/02/15 03:57:47;;;;;;;37.03;22.25;;;;;;;0.24;100.00;101583.58;1736791;82;21010;-65
2022/02/15 04:00:15;;;;;;;39.18;18.73;;;;;;;0.24;100.00;101582.30;1733689;80;21063;-68
2022/02/15 04:02:43;;;;;;;42.25;21.23;;;;;;;0.19;100.00;101578.72;1656464;84;22376;-65
2022/02/15 04:05:11;;;;;;;36.65;21.62;;;;;;;0.28;100.00;101588.91;1689222;83;21034;-72
2022/02/15 04:07:38;;;;;;;37.73;20.80;;;;;;;0.21;100.00;101580.72;1689381;83;21018;-67
2022/02/15 04:10:06;;;;;;;36.88;21.48;;;;;;;0.32;100.00;101588.30;1690022;83;21837;-69
2022/02/15 04:12:34;;;;;;;36.23;21.37;;;;;;;0.21;100.00;101590.98;1689221;84;21389;-67
2022/02/15 04:15:01;;;;;;;34.58;19.92;;;;;;;0.23;100.00;101588.34;1689861;83;21083;-67
2022/02/15 04:17:29;;;;;;;39.38;20.88;;;;;;;0.33;100.00;101586.09;1653747;85;21422;-66
2022/02/15 04:19:56;;;;;;;37.65;19.85;;;;;;;0.59;100.00;101589.78;1690394;83;21077;-67
2022/02/15 04:22:23;;;;;;;35.70;19.23;;;;;;;0.31;100.00;101594.34;1689363;83;21110;-70
2022/02/15 04:24:50;;;;;;;34.18;19.45;;;;;;;0.04;100.00;101591.08;1689146;84;21123;-65
2022/02/15 04:27:17;;;;;;;41.50;20.80;;;;;;;0.18;100.00;101596.27;1688973;83;21152;-69
2022/02/15 04:29:44;;;;;;;36.30;21.12;;;;;;;0.17;100.00;101589.95;1688908;84;22328;-66
2022/02/15 04:32:11;;;;;;;38.23;21.00;;;;;;;0.17;100.00;101591.23;1689185;83;21083;-72
2022/02/15 04:34:39;;;;;;;36.83;21.12;;;;;;;0.28;100.00;101596.61;1688794;84;21109;-65
2022/02/15 04:37:06;;;;;;;35.48;20.65;;;;;;;0.44;100.00;101598.70;1688710;83;20923;-73
2022/02/15 04:39:34;;;;;;;43.35;20.45;;;;;;;0.16;100.00;101596.83;1688958;84;22393;-66
2022/02/15 04:42:04;;;;;;;34.45;20.50;;;;;;;0.52;100.00;101596.16;1655030;85;21063;-72
2022/02/15 04:44:31;;;;;;;35.17;21.45;;;;;;;0.29;100.00;101603.84;1688938;84;21030;-64
2022/02/15 04:46:59;;;;;;;39.33;21.70;;;;;;;0.33;100.00;101610.00;1687953;84;21632;-71
2022/02/15 04:49:27;;;;;;;39.18;20.65;;;;;;;0.27;100.00;101614.20;1689658;83;21584;-66
2022/02/15 04:51:55;;;;;;;39.18;20.85;;;;;;;0.30;100.00;101609.34;1688925;84;21164;-66
2022/02/15 04:54:22;;;;;;;41.20;22.25;;;;;;;0.30;100.00;101609.34;1686848;83;21091;-65
2022/02/15 04:56:50;;;;;;;40.38;21.75;;;;;;;0.49;100.00;101608.70;1687972;84;21044;-64
2022/02/15 04:59:17;;;;;;;40.85;22.22;;;;;;;0.57;100.00;101618.11;1687980;83;21010;-65
2022/02/15 05:01:44;;;;;;;51.33;23.05;;;;;;;0.53;100.00;101620.90;1687999;83;21090;-64
2022/02/15 05:06:58;;;;;;;39.13;22.27;;;;;;;0.54;100.00;101620.02;1685397;84;21512;-70
2022/02/15 05:09:27;;;;;;;40.12;22.40;;;;;;;0.60;100.00;101620.94;1687285;83;21101;-64
2022/02/15 05:11:56;;;;;;;41.23;24.47;;;;;;;0.82;100.00;101626.98;1689193;84;21027;-70
2022/02/15 05:14:23;;;;;;;38.15;21.77;;;;;;;1.08;100.00;101632.75;1688034;84;20963;-65
2022/02/15 05:16:51;;;;;;;35.70;22.37;;;;;;;1.19;100.00;101631.69;1687982;83;21175;-64
2022/02/15 05:19:19;;;;;;;40.17;22.25;;;;;;;1.28;100.00;101639.30;1687054;83;21026;-64
2022/02/15 05:21:48;;;;;;;35.65;22.87;;;;;;;1.57;100.00;101648.35;1655120;85;21004;-63
2022/02/15 05:24:16;;;;;;;43.48;24.10;;;;;;;1.65;100.00;101645.69;1687263;83;21544;-65
2022/02/15 05:26:45;;;;;;;43.23;25.20;;;;;;;2.04;100.00;101646.77;1682677;83;20961;-68
2022/02/15 05:29:13;;;;;;;38.92;23.50;;;;;;;1.97;100.00;101654.52;1657783;85;21168;-65
2022/02/15 05:31:42;;;;;;;42.05;24.00;;;;;;;2.32;100.00;101656.20;1686843;83;20945;-67
2022/02/15 05:34:11;;;;;;;40.65;24.00;;;;;;;2.37;98.87;101654.63;1653685;85;21525;-67
2022/02/15 05:36:38;;;;;;;40.05;24.77;;;;;;;2.70;97.41;101656.02;1687669;83;21059;-67
2022/02/15 05:39:05;;;;;;;44.48;24.12;;;;;;;2.59;99.36;101656.22;1688762;84;21050;-66
2022/02/15 05:41:34;;;;;;;41.50;25.23;;;;;;;2.75;98.01;101661.22;1654372;85;21159;-67
2022/02/15 05:44:03;;;;;;;40.43;25.23;;;;;;;2.86;99.34;101660.08;1688013;83;21120;-68
2022/02/15 05:46:30;;;;;;;38.05;23.83;;;;;;;2.93;100.00;101650.21;1683907;84;21126;-69
2022/02/15 05:48:57;;;;;;;37.55;23.92;;;;;;;3.36;100.00;101662.85;1684795;83;20979;-69
2022/02/15 05:51:25;;;;;;;36.38;22.52;;;;;;;3.95;98.85;101658.47;1686967;83;21662;-67
2022/02/15 05:54:03;;;;;;;34.38;21.57;;;;;;;4.43;99.87;101655.48;1654340;85;21799;-69
2022/02/15 05:56:32;;;;;;;39.23;24.40;;;;;;;5.18;100.00;101659.58;1687899;84;20967;-70
2022/02/15 05:59:01;;;;;;;40.08;25.00;;;;;;;5.72;94.34;101649.45;1653630;85;21094;-66
2022/02/15 06:01:40;;;;;;;39.85;24.72;;;;;;;5.91;85.57;101656.63;1681135;84;21002;-66
2022/02/15 06:04:10;;;;;;;38.23;23.02;;;;;;;6.09;83.91;101659.09;1669668;84;21057;-68
2022/02/15 06:06:40;;;;;;;35.10;23.60;;;;;;;6.83;83.32;101650.68;1663959;85;21309;-64
2022/02/15 06:09:08;;;;;;;35.45;24.12;;;;;;;7.42;72.79;101651.88;1612121;87;21093;-65
2022/02/15 06:11:36;;;;;;;36.58;25.10;;;;;;;8.03;65.96;101645.38;1626589;87;21176;-67
2022/02/15 06:14:04;;;;;;;37.08;24.20;;;;;;;8.61;60.73;101642.12;1614340;87;21104;-67
2022/02/15 06:16:32;;;;;;;34.00;22.67;;;;;;;9.10;59.45;101638.53;1610314;88;20962;-67
2022/02/15 06:19:00;;;;;;;35.90;23.38;;;;;;;10.10;54.97;101639.20;1609372;88;21194;-66
2022/02/15 06:21:30;;;;;;;34.33;22.60;;;;;;;10.45;51.86;101644.99;1612022;86;21058;-67
2022/02/15 06:23:57;;;;;;;31.75;23.12;;;;;;;10.97;49.34;101636.45;1625243;86;20963;-66
2022/02/15 06:26:24;;;;;;;33.18;22.60;;;;;;;11.04;47.09;101630.97;1607910;88;21093;-68
2022/02/15 06:29:07;;;;;;;34.65;23.40;;;;;;;11.12;45.36;101631.02;1599266;88;21028;-65
2022/02/15 06:31:36;;;;;;;33.77;22.97;;;;;;;11.23;44.50;101633.87;1636776;85;21409;-66
2022/02/15 06:34:05;;;;;;;36.43;23.13;;;;;;;10.80;44.16;101636.83;1661998;85;21226;-70
2022/02/15 06:36:33;;;;;;;34.50;23.70;;;;;;;11.10;43.93;101636.89;1609326;88;21456;-65
2022/02/15 06:39:01;;;;;;;31.87;23.90;;;;;;;11.23;43.25;101634.36;1633833;87;21903;-66
2022/02/15 06:41:29;;;;;;;34.53;24.00;;;;;;;11.44;42.84;101635.64;1638674;86;21453;-63
2022/02/15 06:44:00;;;;;;;32.20;24.20;;;;;;;11.47;42.72;101636.28;1665311;84;21317;-68
2022/02/15 06:46:32;;;;;;;;;;;;;;;11.84;42.29;101634.70;1665172;84;21051;-69
2022/02/15 06:49:00;;;;;;;34.27;23.27;;;;;;;12.05;41.34;101631.20;1664928;84;20452;-66
2022/02/15 06:51:27;;;;;;;33.20;23.80;;;;;;;12.11;41.16;101625.81;1611908;87;21227;-67
2022/02/15 06:53:57;;;;;;;33.53;23.43;;;;;;;12.34;40.73;101627.33;1626106;88;21795;-66
2022/02/15 06:56:41;;;;;;;35.80;24.43;;;;;;;12.94;40.08;101624.91;1611665;86;21375;-67
2022/02/15 06:59:09;;;;;;;30.90;23.27;;;;;;;13.31;39.29;101621.29;1637159;86;21435;-67
2022/02/15 07:01:40;;;;;;;35.03;23.27;;;;;;;13.67;38.69;101621.34;1640230;86;21459;-67
2022/02/15 07:04:08;;;;;;;30.27;23.32;;;;;;;13.87;38.15;101617.34;1652659;85;22011;-70
2022/02/15 07:06:36;;;;;;;33.73;23.30;;;;;;;13.97;38.15;101621.85;1687238;83;21318;-69
2022/02/15 07:09:03;;;;;;;29.83;23.13;;;;;;;14.07;37.51;101619.03;1686593;84;23072;-70
2022/02/15 07:11:32;;;;;;;30.07;23.20;;;;;;;14.05;37.40;101621.84;1687627;83;22487;-67
2022/02/15 07:14:00;;;;;;;30.00;22.73;;;;;;;14.18;37.43;101622.56;1685824;84;22284;-68
2022/02/15 07:16:27;;;;;;;32.20;22.67;;;;;;;14.82;35.92;101609.99;1686040;84;21776;-67
2022/02/15 07:18:54;;;;;;;29.70;22.53;;;;;;;14.82;35.92;101609.99;1685425;83;21134;-68
2022/02/15 07:21:39;;;;;;;31.97;23.67;;;;;;;15.17;35.22;101611.62;1682033;84;21728;-69
2022/02/15 07:24:23;;;;;;;30.03;22.63;;;;;;;15.22;35.29;101603.20;1652459;85;21962;-66
2022/02/15 07:27:08;;;;;;;29.93;21.57;;;;;;;15.41;35.07;101601.84;1687779;83;21831;-67
2022/02/15 07:29:37;;;;;;;31.63;22.37;;;;;;;15.51;34.96;101601.08;1686396;83;21386;-68
2022/02/15 07:32:09;;;;;;;28.23;20.92;;;;;;;15.56;34.26;101604.77;1688470;83;21175;-67
2022/02/15 07:34:38;;;;;;;28.37;21.77;;;;;;;15.48;33.59;101600.13;1688199;83;21201;-68
2022/02/15 07:37:04;;;;;;;27.70;20.50;;;;;;;15.24;34.09;101605.97;1687876;83;20963;-67
2022/02/15 07:39:31;;;;;;;30.73;21.13;;;;;;;15.59;33.77;101603.61;1687214;84;21384;-66
2022/02/15 07:41:57;;;;;;;30.63;21.07;;;;;;;15.72;33.83;101602.50;1691765;83;21587;-65
2022/02/15 07:44:30;;;;;;;27.67;19.33;;;;;;;15.74;33.75;101604.94;1653076;85;21248;-66
2022/02/15 07:46:57;;;;;;;25.73;19.43;;;;;;;15.94;33.13;101594.64;1686024;83;21147;-67
2022/02/15 07:49:23;;;;;;;28.60;20.37;;;;;;;15.66;33.14;101597.97;1689832;83;21587;-67
2022/02/15 07:51:50;;;;;;;24.93;19.07;;;;;;;15.76;32.85;101595.87;1688214;83;21024;-66
2022/02/15 07:54:18;;;;;;;24.53;18.47;;;;;;;15.82;32.49;101592.98;1688324;83;21106;-66
2022/02/15 07:56:47;;;;;;;23.83;17.03;;;;;;;15.48;32.97;101595.67;1686107;84;21013;-68
2022/02/15 07:59:15;;;;;;;26.13;17.47;;;;;;;15.55;32.94;101593.14;1685702;84;21082;-66
2022/02/15 08:01:42;;;;;;;24.77;16.87;;;;;;;15.61;32.63;101598.15;1683496;84;21058;-64
2022/02/15 08:04:10;;;;;;;23.33;15.90;;;;;;;15.52;32.62;101598.25;1685600;84;21002;-65
2022/02/15 08:06:39;;;;;;;21.90;16.47;;;;;;;16.20;31.61;101596.23;1658862;85;21123;-65
2022/02/15 08:09:06;;;;;;;26.50;18.07;;;;;;;15.84;31.74;101595.45;1688143;83;20940;-64
2022/02/15 08:11:40;;;;;;;22.43;16.30;;;;;;;15.90;31.55;101592.06;1685958;84;21159;-66
2022/02/15 08:14:04;;;;;;;22.60;17.20;;;;;;;15.67;31.64;101596.95;1687841;84;21030;-64
2022/02/15 08:16:31;;;;;;;24.57;16.30;;;;;;;15.27;32.32;101599.05;1687470;83;21583;-65
2022/02/15 08:18:58;;;;;;;24.83;17.23;;;;;;;15.45;32.11;101596.03;1687234;84;21126;-67
2022/02/15 08:21:25;;;;;;;26.33;17.77;;;;;;;15.38;32.43;101592.53;1688950;83;21971;-69
2022/02/15 08:23:52;;;;;;;22.40;16.70;;;;;;;15.59;32.57;101593.09;1686111;84;21190;-66
2022/02/15 08:26:19;;;;;;;22.37;14.70;;;;;;;15.79;32.52;101587.59;1688488;83;21464;-65
2022/02/15 08:28:47;;;;;;;24.50;16.83;;;;;;;15.69;32.39;101584.96;1686658;83;21491;-65
2022/02/15 08:31:14;;;;;;;24.50;18.23;;;;;;;15.65;32.24;101584.98;1686555;83;21160;-65
2022/02/15 08:33:41;;;;;;;24.77;18.30;;;;;;;15.69;32.53;101583.65;1688143;83;21404;-64
2022/02/15 08:36:08;;;;;;;22.83;17.17;;;;;;;15.56;32.83;101585.56;1688466;83;21123;-64
2022/02/15 08:38:34;;;;;;;24.70;18.23;;;;;;;15.84;32.93;101573.11;1687927;83;22525;-65
2022/02/15 08:41:02;;;;;;;20.30;16.70;;;;;;;16.10;32.30;101579.96;1686657;83;21129;-64
2022/02/15 08:43:30;;;;;;;25.53;17.07;;;;;;;16.01;32.12;101579.75;1687223;84;21663;-64
2022/02/15 08:45:59;;;;;;;23.07;16.53;;;;;;;15.91;32.35;101566.08;1687085;83;21652;-68
2022/02/15 08:48:26;;;;;;;23.17;17.00;;;;;;;15.80;32.43;101574.78;1684955;83;21368;-62
2022/02/15 08:50:53;;;;;;;24.40;17.30;;;;;;;16.32;32.14;101572.05;1683914;84;21038;-67
2022/02/15 08:53:21;;;;;;;26.03;16.20;;;;;;;16.14;32.51;101570.69;1684251;84;21147;-63
2022/02/15 08:55:49;;;;;;;24.63;17.57;;;;;;;16.34;32.21;101564.30;1687571;83;21106;-70
2022/02/15 08:58:15;;;;;;;22.73;15.57;;;;;;;16.41;31.97;101563.85;1687358;83;20987;-63
2022/02/15 09:00:42;;;;;;;21.73;15.60;;;;;;;16.42;32.23;101560.72;1686802;83;21238;-62
2022/02/15 09:03:09;;;;;;;26.13;16.03;;;;;;;16.66;32.02;101557.66;1669958;83;21118;-69
2022/02/15 09:05:36;;;;;;;14.80;9.07;;;;;;;16.60;31.73;101543.96;1656965;85;21012;-63
2022/02/15 09:08:04;;;;;;;18.77;11.00;;;;;;;17.07;29.93;101550.88;1655860;85;20979;-70
2022/02/15 09:10:32;;;;;;;18.27;11.37;;;;;;;16.17;30.59;101554.51;1655900;85;21124;-66
2022/02/15 09:12:59;;;;;;;21.63;12.13;;;;;;;16.27;30.60;101547.62;1653236;85;21169;-64
2022/02/15 09:15:26;;;;;;;15.77;9.80;;;;;;;16.46;30.23;101540.91;1652329;85;21822;-70
2022/02/15 09:17:52;;;;;;;15.57;9.30;;;;;;;16.30;30.33;101541.48;1655987;85;21320;-70
2022/02/15 09:20:19;;;;;;;16.50;9.57;;;;;;;16.19;29.96;101543.31;1656238;85;21570;-65
2022/02/15 09:22:47;;;;;;;14.23;8.83;;;;;;;16.07;30.09;101539.56;1658532;85;21610;-66
2022/02/15 09:25:14;;;;;;;13.27;9.37;;;;;;;16.33;29.83;101533.73;1657510;85;21678;-66
2022/02/15 09:27:41;;;;;;;14.97;9.80;;;;;;;16.14;30.05;101524.66;1657777;85;21598;-67
2022/02/15 09:30:09;;;;;;;14.77;9.13;;;;;;;16.14;30.05;101524.66;1656056;85;21649;-70
2022/02/15 09:32:36;;;;;;;15.10;9.00;;;;;;;16.39;29.59;101530.83;1661060;85;21823;-65
2022/02/15 09:35:06;;;;;;;14.80;9.77;;;;;;;16.51;29.15;101521.40;1655226;85;21794;-66
2022/02/15 09:37:33;;;;;;;14.47;8.70;;;;;;;16.72;29.39;101523.19;1658322;85;21706;-67
2022/02/15 09:40:00;;;;;;;13.70;8.80;;;;;;;16.90;28.63;101514.83;1653332;85;21716;-69
2022/02/15 09:42:28;;;;;;;13.93;9.30;;;;;;;17.11;28.55;101560.83;1656553;85;21835;-67
2022/02/15 09:44:55;;;;;;;14.80;8.50;;;;;;;16.78;28.23;101507.94;1656546;85;21654;-68
2022/02/15 09:47:25;;;;;;;12.20;8.43;;;;;;;16.54;28.70;101514.44;1655594;85;22161;-66
2022/02/15 09:49:52;;;;;;;14.40;7.83;;;;;;;16.72;28.96;101503.44;1653342;85;21684;-69
2022/02/15 09:52:24;;;;;;;11.90;7.40;;;;;;;16.60;28.36;101505.80;1655694;85;21784;-66
2022/02/15 09:54:55;;;;;;;10.23;6.23;;;;;;;16.60;28.36;101505.80;1655265;85;22037;-67
2022/02/15 09:57:23;;;;;;;11.90;7.95;;;;;;;16.65;28.30;101498.13;1656379;85;21829;-66
2022/02/15 09:59:51;;;;;;;11.13;5.83;;;;;;;16.99;28.21;101501.80;1654802;85;21031;-68
2022/02/15 10:02:34;;;;;;;11.47;5.47;;;;;;;16.96;27.18;101514.03;1656551;85;21864;-68
2022/02/15 10:04:59;;;;;;;9.90;5.20;;;;;;;16.83;27.40;101493.71;1654064;85;21636;-68
2022/02/15 10:07:25;;;;;;;5.90;3.00;;;;;;;17.18;26.20;101491.86;1657250;85;22219;-69
2022/02/15 10:09:54;;;;;;;13.47;7.30;;;;;;;17.14;26.10;101483.23;1652966;85;21722;-69
2022/02/15 10:12:24;;;;;;;16.83;11.63;;;;;;;17.56;25.64;101483.47;1654785;85;21541;-67
2022/02/15 10:14:54;;;;;;;9.78;6.15;;;;;;;17.56;25.64;101483.47;1658474;85;22187;-69
2022/02/15 10:18:57;;;;;;;7.47;4.77;;;;;;;17.64;26.06;101481.16;1789633;78;22952;-65
2022/02/15 10:21:28;;;;;;;5.80;3.37;;;;;;;17.98;25.73;101476.27;1772055;80;21032;-64
2022/02/15 10:23:56;;;;;;;5.53;3.40;;;;;;;17.79;24.90;101481.02;1768002;80;21768;-67
2022/02/15 10:26:25;;;;;;;8.17;4.20;;;;;;;17.78;24.98;101482.84;1777273;80;20998;-67
2022/02/15 10:28:53;;;;;;;6.07;3.43;;;;;;;17.36;25.15;101481.29;1781919;80;21611;-67
2022/02/15 10:31:20;;;;;;;8.33;4.10;;;;;;;16.80;26.13;101484.06;1768077;80;22215;-66
2022/02/15 10:33:50;;;;;;;7.47;4.10;;;;;;;16.86;25.57;101485.43;1768341;80;21455;-66
2022/02/15 10:36:16;;;;;;;8.27;4.00;;;;;;;16.86;25.57;101485.43;1761048;80;21427;-68
2022/02/15 10:38:49;;;;;;;7.30;3.47;;;;;;;16.87;26.09;101477.83;1764661;80;21370;-67
2022/02/15 10:41:25;;;;;;;6.27;3.67;;;;;;;16.87;26.09;101477.83;1746663;80;22369;-68
2022/02/15 10:43:54;;;;;;;8.40;4.00;;;;;;;16.81;26.05;101475.96;1770448;80;21457;-68
2022/02/15 10:46:30;;;;;;;7.00;3.73;;;;;;;16.72;26.00;101470.02;1771546;80;21394;-67
2022/02/15 10:49:00;;;;;;;7.03;3.80;;;;;;;16.50;26.05;101473.72;1765670;79;21385;-68
2022/02/15 10:51:27;;;;;;;8.13;4.00;;;;;;;16.47;26.11;101468.83;1778137;80;20990;-69
2022/02/15 10:53:54;;;;;;;6.27;3.67;;;;;;;16.52;26.05;101469.09;1774438;80;21303;-71
2022/02/15 10:56:20;;;;;;;7.27;4.17;;;;;;;16.02;26.29;101463.86;1769087;78;21280;-72
2022/02/15 10:58:47;;;;;;;6.80;4.17;;;;;;;16.02;26.61;101459.91;1767846;79;21391;-68
2022/02/15 11:01:13;;;;;;;8.50;4.57;;;;;;;16.01;26.70;101458.77;1766078;79;21692;-66
2022/02/15 11:03:41;;;;;;;11.07;6.37;;;;;;;16.32;26.65;101455.77;1776111;80;21314;-66
2022/02/15 11:06:09;;;;;;;8.53;4.63;;;;;;;16.53;26.91;101461.50;1777264;80;21727;-68
2022/02/15 11:08:37;;;;;;;8.13;5.17;;;;;;;16.52;26.99;101459.88;1783045;80;21230;-68
2022/02/15 11:11:19;;;;;;;7.63;4.30;;;;;;;16.41;27.18;101451.20;1782749;80;21685;-66
2022/02/15 11:13:46;;;;;;;7.70;4.60;;;;;;;16.00;27.77;101448.75;1784258;80;21153;-65
2022/02/15 11:16:16;;;;;;;10.13;4.80;;;;;;;15.89;28.70;101451.08;1782646;80;21237;-67
2022/02/15 11:18:45;;;;;;;10.13;5.70;;;;;;;15.84;28.84;101442.95;1772121;80;21611;-67
2022/02/15 11:21:27;;;;;;;8.57;4.73;;;;;;;15.73;29.33;101438.50;1769621;80;22155;-67